This is the latest recevied weather packets stored in our database for station/object W3EJE-13. If no packets are shown the sender has not sent any weather packets the latest 10 day(s).
| Time | Temp. | Humidity | Pressure | Rain* | Wind** | Luminosity | Snow |
|---|---|---|---|---|---|---|---|
| 1777937587 | 18.89° C | 62% | 1011 hPa | 0 mm | - | 18 W/m² | - |
| 1777937284 | 18.89° C | 61% | 1011.1 hPa | 0 mm | - | 28 W/m² | - |
| 1777936981 | 19.44° C | 61% | 1011.1 hPa | 0 mm | - | 31 W/m² | - |
| 1777936678 | 19.44° C | 61% | 1011.2 hPa | 0 mm | - | 54 W/m² | - |
| 1777936374 | 20° C | 60% | 1011.2 hPa | 0 mm | - | 74 W/m² | - |
| 1777936070 | 20° C | 60% | 1010.8 hPa | 0 mm | - | 68 W/m² | - |
| 1777935769 | 19.44° C | 62% | 1010.8 hPa | 0 mm | - | 64 W/m² | - |
| 1777935467 | 19.44° C | 60% | 1011 hPa | 0 mm | - | 62 W/m² | - |
| 1777935163 | 18.89° C | 60% | 1011 hPa | 0 mm | - | 59 W/m² | - |
| 1777934860 | 18.89° C | 62% | 1010.9 hPa | 0 mm | - | 32 W/m² | - |
| 1777934558 | 19.44° C | 60% | 1011 hPa | 0 mm | - | 49 W/m² | - |
| 1777934254 | 20° C | 58% | 1010.8 hPa | 0 mm | - | 67 W/m² | - |
| 1777933949 | 20° C | 59% | 1010.7 hPa | 0 mm | - | 86 W/m² | - |
| 1777933647 | 20° C | 59% | 1010.8 hPa | 0 mm | - | 106 W/m² | - |
| 1777933343 | 20.56° C | 58% | 1010.8 hPa | 0 mm | - | 200 W/m² | - |
| 1777933041 | 20.56° C | 57% | 1010.9 hPa | 0 mm | - | 213 W/m² | - |
| 1777932738 | 20.56° C | 57% | 1010.8 hPa | 0 mm | - | 229 W/m² | - |
| 1777932434 | 21.11° C | 55% | 1010.9 hPa | 0 mm | - | 137 W/m² | - |
| 1777932132 | 20.56° C | 58% | 1010.9 hPa | 0 mm | - | 241 W/m² | - |
| 1777931829 | 21.67° C | 55% | 1010.8 hPa | 0 mm | - | 316 W/m² | - |
| 1777931526 | 21.11° C | 55% | 1010.8 hPa | 0 mm | - | 318 W/m² | - |
| 1777931221 | 21.11° C | 55% | 1011.1 hPa | 0 mm | - | 331 W/m² | - |
| 1777930918 | 20.56° C | 56% | 1011 hPa | 0 mm | - | 362 W/m² | - |
| 1777930615 | 20° C | 58% | 1011.1 hPa | 0 mm | - | 345 W/m² | - |
| 1777930311 | 21.11° C | 55% | 1010.9 hPa | 0 mm | - | 99 W/m² | - |
* Rain latest hour (hover to see other rain measurements)
** Current wind speed in m/s (hover to see current wind gust speed)